createdAt,value
2023-01-19T00:01:25.017Z,2.10
2023-01-19T00:03:52.368Z,2.10
2023-01-19T00:06:19.174Z,2.10
2023-01-19T00:08:48.565Z,2.10
2023-01-19T00:11:17.500Z,2.10
2023-01-19T00:13:49.785Z,2.10
2023-01-19T00:16:20.133Z,2.10
2023-01-19T00:18:47.237Z,2.20
2023-01-19T00:21:16.923Z,2.20
2023-01-19T00:23:47.242Z,2.20
2023-01-19T00:26:17.486Z,2.20
2023-01-19T00:28:44.871Z,2.20
2023-01-19T00:31:12.264Z,2.20
2023-01-19T00:33:39.084Z,2.30
2023-01-19T00:36:05.993Z,2.20
2023-01-19T00:38:32.709Z,2.20
2023-01-19T00:40:59.599Z,2.20
2023-01-19T00:43:26.378Z,2.30
2023-01-19T00:45:53.581Z,2.30
2023-01-19T00:48:20.401Z,2.20
2023-01-19T00:50:48.140Z,2.20
2023-01-19T00:53:14.901Z,2.30
2023-01-19T00:55:41.752Z,2.30
2023-01-19T00:58:08.507Z,2.30
2023-01-19T01:00:35.244Z,2.30
2023-01-19T01:03:03.542Z,2.30
2023-01-19T01:05:30.531Z,2.30
2023-01-19T01:07:57.453Z,2.30
2023-01-19T01:10:25.208Z,2.30
2023-01-19T01:12:55.539Z,2.30
2023-01-19T01:15:26.289Z,2.30
2023-01-19T01:17:53.170Z,2.30
2023-01-19T01:20:25.283Z,2.40
2023-01-19T01:22:55.966Z,2.40
2023-01-19T01:25:23.571Z,2.40
2023-01-19T01:27:50.727Z,2.50
2023-01-19T01:30:17.647Z,2.40
2023-01-19T01:32:44.561Z,2.40
2023-01-19T01:35:11.468Z,2.50
2023-01-19T01:37:38.605Z,2.40
2023-01-19T01:40:06.507Z,2.50
2023-01-19T01:42:34.100Z,2.40
2023-01-19T01:45:02.458Z,2.50
2023-01-19T01:47:32.614Z,2.50
2023-01-19T01:50:05.614Z,2.50
2023-01-19T01:52:34.276Z,2.50
2023-01-19T01:55:02.662Z,2.50
2023-01-19T01:57:29.901Z,2.60
2023-01-19T01:59:57.279Z,2.50
2023-01-19T02:02:44.419Z,2.60
2023-01-19T02:05:12.715Z,2.60
2023-01-19T02:08:04.345Z,2.60
2023-01-19T02:10:49.977Z,2.60
2023-01-19T02:13:22.996Z,2.60
2023-01-19T02:15:51.731Z,2.60
2023-01-19T02:18:19.379Z,2.60
2023-01-19T02:20:56.847Z,2.60
2023-01-19T02:23:36.017Z,2.60
2023-01-19T02:26:03.609Z,2.70
2023-01-19T02:28:31.169Z,2.70
2023-01-19T02:30:58.021Z,2.60
2023-01-19T02:33:24.820Z,2.60
2023-01-19T02:35:52.288Z,2.60
2023-01-19T02:38:19.913Z,2.70
2023-01-19T02:40:47.560Z,2.70
2023-01-19T02:46:31.296Z,2.70
2023-01-19T02:48:59.300Z,2.70
2023-01-19T02:51:26.831Z,2.70
2023-01-19T02:57:45.079Z,2.70
2023-01-19T03:00:15.147Z,2.70
2023-01-19T03:02:53.817Z,2.70
2023-01-19T03:05:40.324Z,2.70
2023-01-19T03:08:26.083Z,2.70
2023-01-19T03:10:52.945Z,2.70
2023-01-19T03:13:22.664Z,2.70
2023-01-19T03:16:05.182Z,2.60
2023-01-19T03:18:33.438Z,2.70
2023-01-19T03:21:02.078Z,2.70
2023-01-19T03:23:30.846Z,2.80
2023-01-19T03:25:58.593Z,2.80
2023-01-19T03:28:26.683Z,2.80
2023-01-19T03:30:58.742Z,2.80
2023-01-19T03:33:28.519Z,2.80
2023-01-19T03:35:58.278Z,2.80
2023-01-19T03:38:26.264Z,2.70
2023-01-19T03:40:58.717Z,2.80
2023-01-19T03:43:26.003Z,2.80
2023-01-19T03:45:52.937Z,2.80
2023-01-19T03:48:21.391Z,2.80
2023-01-19T03:50:49.760Z,2.80
2023-01-19T03:53:17.236Z,2.90
2023-01-19T03:55:45.632Z,2.90
2023-01-19T03:58:12.364Z,2.80
2023-01-19T04:00:39.478Z,2.80
2023-01-19T04:03:07.158Z,2.80
2023-01-19T04:05:33.977Z,2.90
2023-01-19T04:08:00.728Z,2.80
2023-01-19T04:10:27.488Z,2.80
2023-01-19T04:13:01.535Z,2.90
2023-01-19T04:15:29.129Z,2.80
2023-01-19T04:18:00.175Z,2.80
2023-01-19T04:20:28.175Z,2.90
2023-01-19T04:22:56.213Z,2.90
2023-01-19T04:25:22.984Z,2.90
2023-01-19T04:27:53.412Z,2.90
2023-01-19T04:30:20.528Z,2.90
2023-01-19T04:32:47.259Z,2.90
2023-01-19T04:35:13.958Z,2.90
2023-01-19T04:37:40.810Z,2.90
2023-01-19T04:40:07.972Z,2.90
2023-01-19T04:42:34.757Z,2.90
2023-01-19T04:45:01.517Z,2.90
2023-01-19T04:47:28.338Z,2.90
2023-01-19T04:49:55.074Z,2.90
2023-01-19T04:52:21.771Z,2.90
2023-01-19T04:54:48.923Z,2.90
2023-01-19T04:57:15.729Z,2.90
2023-01-19T04:59:42.466Z,2.90
2023-01-19T05:02:09.422Z,3.00
2023-01-19T05:04:36.351Z,3.00
2023-01-19T05:07:03.098Z,2.90
2023-01-19T05:09:29.786Z,2.90
2023-01-19T05:11:56.621Z,2.90
2023-01-19T05:14:23.371Z,3.00
2023-01-19T05:16:50.254Z,2.90
2023-01-19T05:19:16.955Z,3.00
2023-01-19T05:21:43.782Z,3.00
2023-01-19T05:24:10.563Z,2.90
2023-01-19T05:26:37.650Z,2.90
2023-01-19T05:29:04.558Z,2.90
2023-01-19T05:31:31.367Z,3.00
2023-01-19T05:33:58.164Z,3.00
2023-01-19T05:36:24.922Z,3.00
2023-01-19T05:38:51.830Z,3.00
2023-01-19T05:41:18.577Z,3.00
2023-01-19T05:43:45.358Z,3.00
2023-01-19T05:46:12.267Z,3.10
2023-01-19T05:48:39.954Z,3.10
2023-01-19T05:51:06.796Z,3.10
2023-01-19T05:53:33.559Z,3.00
2023-01-19T05:56:00.993Z,3.00
2023-01-19T05:58:28.748Z,3.00
2023-01-19T06:00:55.958Z,3.10
2023-01-19T06:03:22.805Z,3.10
2023-01-19T06:05:49.549Z,3.10
2023-01-19T06:08:16.272Z,3.10
2023-01-19T06:10:43.004Z,3.10
2023-01-19T06:13:11.145Z,3.20
2023-01-19T06:15:38.168Z,3.10
2023-01-19T06:18:04.969Z,3.10
2023-01-19T06:20:31.725Z,3.10
2023-01-19T06:22:58.987Z,3.20
2023-01-19T06:25:26.045Z,3.20
2023-01-19T06:27:52.904Z,3.20
2023-01-19T06:30:19.767Z,3.20
2023-01-19T06:32:47.452Z,3.20
2023-01-19T06:35:18.360Z,3.10
2023-01-19T06:37:49.973Z,3.10
2023-01-19T06:40:16.920Z,3.10
2023-01-19T06:42:43.815Z,3.10
2023-01-19T06:45:10.736Z,3.10
2023-01-19T06:47:38.489Z,3.10
2023-01-19T06:50:27.365Z,3.10
2023-01-19T06:52:54.514Z,3.10
2023-01-19T06:55:21.334Z,3.10
2023-01-19T06:57:55.799Z,3.20
2023-01-19T07:00:25.396Z,3.10
2023-01-19T07:02:52.538Z,3.10
2023-01-19T07:05:19.478Z,3.10
2023-01-19T07:07:51.991Z,3.20
2023-01-19T07:10:18.769Z,3.20
2023-01-19T07:12:47.340Z,3.20
2023-01-19T07:15:14.848Z,3.10
2023-01-19T07:17:42.199Z,3.10
2023-01-19T07:20:16.297Z,3.10
2023-01-19T07:22:46.659Z,3.20
2023-01-19T07:25:14.198Z,3.20
2023-01-19T07:27:41.118Z,3.20
2023-01-19T07:30:08.643Z,3.10
2023-01-19T07:32:35.983Z,3.20
2023-01-19T07:35:02.847Z,3.20
2023-01-19T07:37:29.579Z,3.20
2023-01-19T07:39:56.316Z,3.20
2023-01-19T07:42:23.092Z,3.20
2023-01-19T07:44:49.811Z,3.20
2023-01-19T07:47:16.551Z,3.10
2023-01-19T07:49:43.256Z,3.20
2023-01-19T07:52:10.155Z,3.10
2023-01-19T07:54:36.875Z,3.10
2023-01-19T07:57:03.648Z,3.10
2023-01-19T07:59:32.265Z,3.10
2023-01-19T08:01:59.613Z,3.10
2023-01-19T08:04:27.131Z,3.10
2023-01-19T08:06:53.994Z,3.20
2023-01-19T08:09:20.748Z,3.20
2023-01-19T08:11:47.680Z,3.20
2023-01-19T08:14:14.365Z,3.20
2023-01-19T08:16:41.179Z,3.20
2023-01-19T08:19:08.123Z,3.20
2023-01-19T08:21:36.279Z,3.20
2023-01-19T08:24:03.145Z,3.30
2023-01-19T08:26:34.394Z,3.30
2023-01-19T08:29:02.994Z,3.30
2023-01-19T08:31:30.226Z,3.40
2023-01-19T08:33:57.079Z,3.30
2023-01-19T08:36:25.009Z,3.30
2023-01-19T08:38:52.173Z,3.30
2023-01-19T08:41:18.958Z,3.30
2023-01-19T08:43:45.700Z,3.30
2023-01-19T08:46:12.980Z,3.30
2023-01-19T08:48:40.115Z,3.30
2023-01-19T08:51:06.891Z,3.30
2023-01-19T08:53:34.677Z,3.30
2023-01-19T08:56:02.254Z,3.30
2023-01-19T08:58:29.018Z,3.30
2023-01-19T09:00:56.011Z,3.30
2023-01-19T09:03:23.023Z,3.40
2023-01-19T09:05:50.382Z,3.40
2023-01-19T09:08:17.209Z,3.40
2023-01-19T09:10:45.816Z,3.40
2023-01-19T09:13:13.586Z,3.40
2023-01-19T09:15:41.083Z,3.40
2023-01-19T09:18:13.554Z,3.40
2023-01-19T09:20:42.451Z,3.40
2023-01-19T09:23:10.768Z,3.40
2023-01-19T09:25:38.358Z,3.50
2023-01-19T09:28:09.398Z,3.40
2023-01-19T09:30:37.450Z,3.50
2023-01-19T09:33:06.323Z,3.50
2023-01-19T09:35:33.645Z,3.50
2023-01-19T09:38:01.062Z,3.50
2023-01-19T09:40:28.007Z,3.50
2023-01-19T09:43:05.010Z,3.50
2023-01-19T09:45:36.384Z,3.50
2023-01-19T09:48:16.179Z,3.60
2023-01-19T09:50:47.667Z,3.60
2023-01-19T09:53:18.017Z,3.60
2023-01-19T09:55:44.776Z,3.60
2023-01-19T09:58:14.191Z,3.60
2023-01-19T10:00:42.886Z,3.60
2023-01-19T10:03:16.719Z,3.70
2023-01-19T10:05:49.691Z,3.60
2023-01-19T10:08:23.981Z,3.60
2023-01-19T10:10:56.192Z,3.60
2023-01-19T10:13:33.225Z,3.60
2023-01-19T10:16:05.021Z,3.60
2023-01-19T10:18:46.950Z,3.60
2023-01-19T10:21:22.769Z,3.70
2023-01-19T10:23:57.605Z,3.70
2023-01-19T10:26:33.832Z,3.70
2023-01-19T10:29:08.427Z,3.80
2023-01-19T10:31:37.577Z,3.80
2023-01-19T10:34:04.480Z,3.80
2023-01-19T10:36:36.267Z,3.70
2023-01-19T10:39:07.264Z,3.70
2023-01-19T10:41:44.739Z,3.70
2023-01-19T10:44:12.024Z,3.80
2023-01-19T10:46:46.091Z,3.80
2023-01-19T10:49:28.239Z,3.70
2023-01-19T10:51:55.751Z,3.70
2023-01-19T10:54:23.059Z,3.80
2023-01-19T10:57:01.041Z,3.80
2023-01-19T10:59:38.685Z,3.80
2023-01-19T11:02:18.283Z,3.80
2023-01-19T11:04:48.966Z,3.80
2023-01-19T11:07:43.022Z,3.90
2023-01-19T11:10:12.764Z,3.90
2023-01-19T11:12:40.572Z,3.90
2023-01-19T11:15:20.911Z,3.90
2023-01-19T11:17:50.860Z,3.80
2023-01-19T11:20:22.633Z,3.90
2023-01-19T11:23:03.494Z,3.90
2023-01-19T11:25:31.593Z,3.90
2023-01-19T11:27:58.348Z,3.90
2023-01-19T11:30:25.680Z,3.90
2023-01-19T11:32:53.058Z,3.90
2023-01-19T11:35:33.895Z,3.90
2023-01-19T11:38:06.732Z,3.90
2023-01-19T11:40:34.798Z,3.90
2023-01-19T11:43:01.956Z,3.90
2023-01-19T11:45:29.001Z,3.90
2023-01-19T11:47:57.025Z,3.90
2023-01-19T11:50:25.238Z,3.90
2023-01-19T11:53:00.475Z,3.90
2023-01-19T11:55:47.306Z,4.00
2023-01-19T11:58:15.057Z,4.00
2023-01-19T12:00:44.895Z,4.00
2023-01-19T12:03:22.510Z,4.00
2023-01-19T12:05:51.416Z,4.00
2023-01-19T12:08:24.404Z,4.00
2023-01-19T12:10:52.309Z,4.00
2023-01-19T12:13:21.094Z,4.00
2023-01-19T12:15:49.480Z,4.00
2023-01-19T12:18:19.741Z,4.00
2023-01-19T12:20:51.524Z,4.00
2023-01-19T12:23:24.378Z,4.00
2023-01-19T12:26:06.408Z,4.10
2023-01-19T12:28:37.512Z,4.10
2023-01-19T12:31:04.520Z,4.10
2023-01-19T12:33:34.606Z,4.00
2023-01-19T12:36:04.536Z,4.00
2023-01-19T12:38:57.737Z,4.00
2023-01-19T12:41:51.198Z,4.10
2023-01-19T12:44:22.398Z,4.10
2023-01-19T12:46:58.060Z,4.10
2023-01-19T12:49:32.508Z,4.20
2023-01-19T12:52:18.921Z,4.20
2023-01-19T12:54:57.837Z,4.20
2023-01-19T12:57:38.913Z,4.20
2023-01-19T13:00:25.731Z,4.20
2023-01-19T13:02:56.663Z,4.20
2023-01-19T13:05:33.546Z,4.20
2023-01-19T13:08:04.862Z,4.20
2023-01-19T13:10:50.336Z,4.20
2023-01-19T13:13:18.419Z,4.20
2023-01-19T13:15:45.163Z,4.30
2023-01-19T13:18:22.334Z,4.40
2023-01-19T13:20:51.314Z,4.30
2023-01-19T13:23:23.069Z,4.40
2023-01-19T13:25:54.850Z,4.40
2023-01-19T13:28:26.238Z,4.50
2023-01-19T13:30:55.149Z,4.50
2023-01-19T13:33:23.933Z,4.50
2023-01-19T13:35:58.794Z,4.50
2023-01-19T13:38:27.122Z,4.50
2023-01-19T13:40:55.152Z,4.50
2023-01-19T13:43:27.132Z,4.40
2023-01-19T13:45:53.944Z,4.40
2023-01-19T13:48:24.847Z,4.50
2023-01-19T13:50:59.257Z,4.50
2023-01-19T13:53:26.092Z,4.50
2023-01-19T13:56:06.481Z,4.50
2023-01-19T13:58:33.202Z,4.60
2023-01-19T14:01:00.212Z,4.50
2023-01-19T14:03:27.083Z,4.50
2023-01-19T14:05:54.708Z,4.50
2023-01-19T14:08:22.168Z,4.50
2023-01-19T14:10:51.986Z,4.60
2023-01-19T14:13:20.100Z,4.60
2023-01-19T14:15:48.819Z,4.60
2023-01-19T14:18:18.771Z,4.60
2023-01-19T14:20:56.112Z,4.60
2023-01-19T14:23:51.994Z,4.60
2023-01-19T14:26:37.131Z,4.60
2023-01-19T14:29:09.875Z,4.60
2023-01-19T14:31:44.292Z,4.60
2023-01-19T14:34:43.803Z,4.60
2023-01-19T14:37:19.844Z,4.60
2023-01-19T14:39:48.239Z,4.60
2023-01-19T14:42:17.598Z,4.60
2023-01-19T14:44:48.079Z,4.60
2023-01-19T14:47:27.485Z,4.60
2023-01-19T14:49:54.829Z,4.60
2023-01-19T14:52:39.510Z,4.60
2023-01-19T14:55:08.256Z,4.60
2023-01-19T14:57:36.305Z,4.50
2023-01-19T15:00:10.967Z,4.50
2023-01-19T15:02:37.696Z,4.50
2023-01-19T15:05:04.696Z,4.50
2023-01-19T15:07:31.469Z,4.50
2023-01-19T15:09:58.969Z,4.40
2023-01-19T15:12:27.046Z,4.40
2023-01-19T15:14:54.541Z,4.40
2023-01-19T15:17:27.816Z,4.40
2023-01-19T15:19:55.193Z,4.40
2023-01-19T15:22:22.675Z,4.40
2023-01-19T15:24:49.790Z,4.40
2023-01-19T15:27:20.332Z,4.30
2023-01-19T15:29:50.171Z,4.30
2023-01-19T15:32:16.996Z,4.20
2023-01-19T15:34:43.929Z,4.30
2023-01-19T15:40:32.656Z,4.20
2023-01-19T15:43:00.466Z,4.20
2023-01-19T15:45:35.917Z,4.20
2023-01-19T15:48:07.586Z,4.20
2023-01-19T15:50:39.069Z,4.20
2023-01-19T15:53:06.416Z,4.10
2023-01-19T15:55:33.359Z,4.10
2023-01-19T15:58:03.186Z,4.10
2023-01-19T16:00:31.332Z,4.10
2023-01-19T16:03:39.287Z,4.10
2023-01-19T16:06:33.968Z,4.10
2023-01-19T16:09:01.450Z,4.10
2023-01-19T16:11:29.475Z,4.00
2023-01-19T16:13:56.354Z,4.00
2023-01-19T16:16:24.520Z,4.00
2023-01-19T16:18:51.545Z,3.90
2023-01-19T16:21:18.512Z,3.90
2023-01-19T16:23:46.526Z,3.90
2023-01-19T16:26:34.257Z,3.90
2023-01-19T16:29:02.310Z,3.80
2023-01-19T16:31:29.579Z,3.80
2023-01-19T16:33:56.467Z,3.80
2023-01-19T16:36:30.949Z,3.80
2023-01-19T16:38:58.708Z,3.80
2023-01-19T16:41:25.530Z,3.70
2023-01-19T16:43:52.966Z,3.70
2023-01-19T16:46:24.489Z,3.70
2023-01-19T16:48:51.861Z,3.60
2023-01-19T16:51:21.789Z,3.60
2023-01-19T16:53:50.694Z,3.60
2023-01-19T16:56:17.692Z,3.60
2023-01-19T16:58:44.752Z,3.50
2023-01-19T17:01:17.223Z,3.60
2023-01-19T17:03:45.103Z,3.40
2023-01-19T17:06:12.648Z,3.50
2023-01-19T17:08:40.064Z,3.40
2023-01-19T17:11:20.792Z,3.40
2023-01-19T17:13:48.115Z,3.40
2023-01-19T17:16:15.096Z,3.40
2023-01-19T17:18:42.020Z,3.30
2023-01-19T17:21:10.230Z,3.30
2023-01-19T17:23:53.455Z,3.30
2023-01-19T17:26:20.396Z,3.20
2023-01-19T17:28:47.439Z,3.30
2023-01-19T17:31:16.272Z,3.20
2023-01-19T17:33:43.791Z,3.20
2023-01-19T17:36:14.534Z,3.20
2023-01-19T17:38:41.612Z,3.20
2023-01-19T17:41:12.408Z,3.10
2023-01-19T17:43:39.169Z,3.10
2023-01-19T17:46:06.047Z,3.00
2023-01-19T17:48:32.857Z,3.00
2023-01-19T17:51:03.624Z,3.00
2023-01-19T17:53:30.373Z,3.00
2023-01-19T17:56:02.600Z,3.10
2023-01-19T17:58:30.220Z,3.00
2023-01-19T18:00:57.383Z,3.00
2023-01-19T18:03:24.353Z,3.00
2023-01-19T18:05:54.803Z,3.00
2023-01-19T18:08:21.760Z,3.00
2023-01-19T18:10:55.568Z,3.00
2023-01-19T18:13:22.826Z,3.00
2023-01-19T18:15:49.915Z,3.00
2023-01-19T18:18:17.227Z,3.00
2023-01-19T18:20:44.647Z,2.90
2023-01-19T18:23:11.565Z,3.00
2023-01-19T18:25:39.637Z,2.90
2023-01-19T18:28:07.016Z,3.00
2023-01-19T18:30:34.591Z,2.90
2023-01-19T18:33:01.319Z,2.90
2023-01-19T18:35:28.736Z,2.90
2023-01-19T18:37:56.956Z,2.90
2023-01-19T18:40:23.946Z,2.90
2023-01-19T18:42:50.829Z,2.90
2023-01-19T18:45:17.655Z,2.80
2023-01-19T18:47:44.451Z,2.90
2023-01-19T18:50:13.976Z,2.80
2023-01-19T18:52:40.851Z,2.80
2023-01-19T18:55:07.697Z,2.80
2023-01-19T18:57:34.785Z,2.80
2023-01-19T19:00:01.695Z,2.80
2023-01-19T19:02:28.516Z,2.80
2023-01-19T19:04:55.338Z,2.80
2023-01-19T19:07:22.087Z,2.90
2023-01-19T19:09:48.876Z,2.90
2023-01-19T19:12:15.606Z,2.80
2023-01-19T19:14:42.711Z,2.80
2023-01-19T19:17:09.587Z,2.70
2023-01-19T19:19:36.363Z,2.70
2023-01-19T19:22:03.422Z,2.80
2023-01-19T19:24:30.261Z,2.80
2023-01-19T19:26:57.090Z,2.70
2023-01-19T19:29:23.871Z,2.80
2023-01-19T19:31:50.591Z,2.70
2023-01-19T19:34:17.402Z,2.70
2023-01-19T19:36:44.256Z,2.70
2023-01-19T19:39:11.034Z,2.80
2023-01-19T19:41:38.777Z,2.70
2023-01-19T19:44:05.553Z,2.70
2023-01-19T19:46:32.298Z,2.70
2023-01-19T19:48:58.989Z,2.70
2023-01-19T19:51:27.348Z,2.70
2023-01-19T19:53:55.650Z,2.60
2023-01-19T19:56:23.520Z,2.60
2023-01-19T19:58:51.214Z,2.70
2023-01-19T20:01:19.250Z,2.60
2023-01-19T20:03:46.333Z,2.70
2023-01-19T20:06:23.623Z,2.60
2023-01-19T20:08:54.782Z,2.60
2023-01-19T20:11:22.922Z,2.60
2023-01-19T20:13:50.742Z,2.60
2023-01-19T20:16:18.606Z,2.60
2023-01-19T20:18:48.716Z,2.60
2023-01-19T20:21:22.110Z,2.60
2023-01-19T20:23:50.455Z,2.60
2023-01-19T20:26:18.713Z,2.50
2023-01-19T20:29:06.468Z,2.60
2023-01-19T20:31:43.971Z,2.50
2023-01-19T20:34:11.750Z,2.50
2023-01-19T20:36:38.585Z,2.50
2023-01-19T20:39:08.524Z,2.50
2023-01-19T20:41:42.860Z,2.50
2023-01-19T20:44:10.613Z,2.40
2023-01-19T20:46:37.412Z,2.40
2023-01-19T20:49:04.396Z,2.40
2023-01-19T20:51:32.352Z,2.40
2023-01-19T20:53:59.314Z,2.40
2023-01-19T20:56:26.167Z,2.40
2023-01-19T20:58:52.978Z,2.40
2023-01-19T21:01:21.406Z,2.40
2023-01-19T21:04:07.615Z,2.40
2023-01-19T21:06:34.478Z,2.40
2023-01-19T21:09:01.340Z,2.40
2023-01-19T21:11:28.361Z,2.40
2023-01-19T21:13:58.212Z,2.40
2023-01-19T21:16:26.867Z,2.40
2023-01-19T21:18:53.823Z,2.40
2023-01-19T21:21:30.336Z,2.40
2023-01-19T21:24:01.784Z,2.40
2023-01-19T21:26:31.580Z,2.40
2023-01-19T21:28:58.929Z,2.40
2023-01-19T21:31:27.745Z,2.40
2023-01-19T21:33:55.282Z,2.40
2023-01-19T21:36:34.313Z,2.40
2023-01-19T21:39:01.459Z,2.40
2023-01-19T21:41:28.456Z,2.40
2023-01-19T21:43:55.224Z,2.30
2023-01-19T21:46:28.799Z,2.30
2023-01-19T21:49:02.782Z,2.40
2023-01-19T21:51:33.325Z,2.30
2023-01-19T21:54:00.609Z,2.30
2023-01-19T21:56:28.128Z,2.30
2023-01-19T21:58:55.774Z,2.30
2023-01-19T22:01:25.693Z,2.20
2023-01-19T22:03:56.481Z,2.20
2023-01-19T22:06:23.554Z,2.20
2023-01-19T22:08:53.897Z,2.20
2023-01-19T22:11:24.835Z,2.20
2023-01-19T22:13:51.877Z,2.20
2023-01-19T22:16:19.467Z,2.20
2023-01-19T22:18:49.909Z,2.20
2023-01-19T22:21:18.428Z,2.20
2023-01-19T22:23:48.179Z,2.20
2023-01-19T22:26:15.204Z,2.10
2023-01-19T22:28:43.741Z,2.10
2023-01-19T22:31:24.066Z,2.10
2023-01-19T22:33:51.970Z,2.20
2023-01-19T22:36:38.158Z,2.10
2023-01-19T22:39:34.548Z,2.10
2023-01-19T22:42:07.437Z,2.20
2023-01-19T22:44:34.229Z,2.20
2023-01-19T22:47:00.975Z,2.10
2023-01-19T22:49:27.889Z,2.10
2023-01-19T22:51:57.255Z,2.10
2023-01-19T22:54:26.871Z,2.10
2023-01-19T22:56:58.355Z,2.00
2023-01-19T22:59:25.203Z,2.00
2023-01-19T23:01:52.319Z,2.00
2023-01-19T23:04:19.598Z,2.00
2023-01-19T23:06:50.784Z,2.00
2023-01-19T23:09:17.696Z,2.00
2023-01-19T23:11:45.838Z,2.00
2023-01-19T23:14:14.331Z,1.90
2023-01-19T23:16:41.570Z,1.90
2023-01-19T23:19:11.040Z,1.90
2023-01-19T23:21:37.833Z,1.90
2023-01-19T23:24:08.011Z,1.90
2023-01-19T23:26:40.968Z,1.90
2023-01-19T23:29:11.499Z,1.90
2023-01-19T23:31:39.136Z,1.90
2023-01-19T23:34:07.367Z,1.80
2023-01-19T23:36:35.200Z,1.80
2023-01-19T23:39:04.149Z,1.80
2023-01-19T23:41:32.412Z,1.80
2023-01-19T23:43:59.107Z,1.80
2023-01-19T23:46:26.225Z,1.80
2023-01-19T23:48:53.462Z,1.80
2023-01-19T23:51:22.633Z,1.80
2023-01-19T23:53:49.641Z,1.80
2023-01-19T23:56:18.214Z,1.70
2023-01-19T23:58:45.784Z,1.70
